createdAt,value
2019-05-07T00:02:32.718Z,4.97
2019-05-07T00:05:42.700Z,3.87
2019-05-07T00:11:57.915Z,3.97
2019-05-07T00:15:06.579Z,4.17
2019-05-07T00:18:14.560Z,4.30
2019-05-07T00:21:23.358Z,4.13
2019-05-07T00:27:42.775Z,3.70
2019-05-07T00:30:52.131Z,3.67
2019-05-07T00:37:17.260Z,3.50
2019-05-07T00:40:33.050Z,3.30
2019-05-07T00:43:43.282Z,3.40
2019-05-07T00:46:52.515Z,3.73
2019-05-07T00:50:05.246Z,4.07
2019-05-07T00:53:13.277Z,3.87
2019-05-07T00:56:22.316Z,4.00
2019-05-07T00:59:32.230Z,4.20
2019-05-07T01:02:40.491Z,4.63
2019-05-07T01:05:49.001Z,4.83
2019-05-07T01:08:57.017Z,5.07
2019-05-07T01:12:05.246Z,4.57
2019-05-07T01:15:27.679Z,4.80
2019-05-07T01:18:23.587Z,5.17
2019-05-07T01:21:32.444Z,4.63
2019-05-07T01:24:42.954Z,5.47
2019-05-07T01:27:50.577Z,5.83
2019-05-07T01:30:58.688Z,5.87
2019-05-07T01:34:15.260Z,5.00
2019-05-07T01:37:24.271Z,5.70
2019-05-07T01:40:32.475Z,5.57
2019-05-07T01:49:55.111Z,5.37
2019-05-07T01:56:12.506Z,5.40
2019-05-07T01:59:22.468Z,5.10
2019-05-07T02:02:43.284Z,5.30
2019-05-07T02:06:05.245Z,5.10
2019-05-07T02:09:25.672Z,5.63
2019-05-07T02:12:35.254Z,5.50
2019-05-07T02:15:57.380Z,5.47
2019-05-07T02:22:02.759Z,5.23
2019-05-07T02:25:12.467Z,4.87
2019-05-07T02:28:22.287Z,5.27
2019-05-07T02:31:33.686Z,4.60
2019-05-07T02:34:44.210Z,4.83
2019-05-07T02:37:56.998Z,4.90
2019-05-07T02:41:14.187Z,5.20
2019-05-07T02:47:33.140Z,5.50
2019-05-07T02:50:57.694Z,5.33
2019-05-07T02:54:23.773Z,4.33
2019-05-07T02:57:34.052Z,5.23
2019-05-07T03:00:43.084Z,4.67
2019-05-07T03:03:52.852Z,4.77
2019-05-07T03:07:03.646Z,4.93
2019-05-07T03:10:13.651Z,4.37
2019-05-07T03:13:23.434Z,4.73
2019-05-07T03:16:39.631Z,4.30
2019-05-07T03:22:53.569Z,4.43
2019-05-07T03:26:07.274Z,4.30
2019-05-07T03:29:24.006Z,5.00
2019-05-07T03:32:38.756Z,4.97
2019-05-07T03:35:55.439Z,4.60
2019-05-07T03:38:59.517Z,4.30
2019-05-07T03:42:07.584Z,4.00
2019-05-07T03:45:42.983Z,4.80
2019-05-07T03:48:52.916Z,4.30
2019-05-07T03:52:00.055Z,4.53
2019-05-07T03:55:09.216Z,4.30
2019-05-07T03:58:17.723Z,4.73
2019-05-07T04:01:25.537Z,5.10
2019-05-07T04:04:33.524Z,4.53
2019-05-07T04:07:43.095Z,4.80
2019-05-07T04:10:53.833Z,4.33
2019-05-07T04:14:02.602Z,4.53
2019-05-07T04:17:17.339Z,4.80
2019-05-07T04:20:23.706Z,4.70
2019-05-07T04:23:33.745Z,4.90
2019-05-07T04:26:43.871Z,4.40
2019-05-07T04:29:53.233Z,4.30
2019-05-07T04:36:39.535Z,4.33
2019-05-07T04:39:54.439Z,4.87
2019-05-07T04:46:14.081Z,4.60
2019-05-07T04:49:23.593Z,4.40
2019-05-07T04:52:34.739Z,4.90
2019-05-07T04:55:43.186Z,5.03
2019-05-07T04:58:53.392Z,5.03
2019-05-07T05:05:24.081Z,5.53
2019-05-07T05:08:32.710Z,5.60
2019-05-07T05:11:40.580Z,6.70
2019-05-07T05:14:48.642Z,6.27
2019-05-07T05:17:58.669Z,5.93
2019-05-07T05:21:26.729Z,6.20
2019-05-07T05:24:42.422Z,6.07
2019-05-07T05:27:52.414Z,6.33
2019-05-07T05:31:03.416Z,6.33
2019-05-07T05:34:13.072Z,5.97
2019-05-07T05:37:22.644Z,6.03
2019-05-07T05:40:32.003Z,8.30
2019-05-07T05:44:05.549Z,8.40
2019-05-07T05:47:13.573Z,9.97
2019-05-07T05:50:21.912Z,10.00
2019-05-07T05:53:38.641Z,10.57
2019-05-07T05:56:54.904Z,9.97
2019-05-07T06:00:26.399Z,10.57
2019-05-07T06:03:59.284Z,10.60
2019-05-07T06:07:26.222Z,10.67
2019-05-07T06:11:09.190Z,10.60
2019-05-07T06:14:45.338Z,11.57
2019-05-07T06:18:06.862Z,10.50
2019-05-07T06:21:33.914Z,10.00
2019-05-07T06:24:47.147Z,11.07
2019-05-07T06:27:55.251Z,10.87
2019-05-07T06:31:03.566Z,11.73
2019-05-07T06:34:12.455Z,9.63
2019-05-07T06:37:22.661Z,9.67
2019-05-07T06:40:58.463Z,9.90
2019-05-07T06:47:17.557Z,9.10
2019-05-07T06:50:25.503Z,9.67
2019-05-07T06:53:34.892Z,9.23
2019-05-07T06:56:43.028Z,9.07
2019-05-07T06:59:54.644Z,9.07
2019-05-07T07:03:12.731Z,10.07
2019-05-07T07:06:25.430Z,9.57
2019-05-07T07:12:55.623Z,8.80
2019-05-07T07:16:04.136Z,10.77
2019-05-07T07:19:12.714Z,8.57
2019-05-07T07:22:22.257Z,9.03
2019-05-07T07:25:32.515Z,9.17
2019-05-07T07:28:42.783Z,9.40
2019-05-07T07:31:59.270Z,9.90
2019-05-07T07:35:09.723Z,9.97
2019-05-07T07:38:34.159Z,9.87
2019-05-07T07:41:54.230Z,10.67
2019-05-07T07:45:16.256Z,9.90
2019-05-07T07:48:24.950Z,10.77
2019-05-07T07:51:41.095Z,10.37
2019-05-07T07:54:45.432Z,9.90
2019-05-07T07:58:04.471Z,10.33
2019-05-07T08:01:22.476Z,9.67
2019-05-07T08:04:32.035Z,9.70
2019-05-07T08:07:42.601Z,10.67
2019-05-07T08:13:57.343Z,9.30
2019-05-07T08:17:07.702Z,10.50
2019-05-07T08:20:17.750Z,8.57
2019-05-07T08:23:25.569Z,9.20
2019-05-07T08:26:33.551Z,9.97
2019-05-07T08:29:43.033Z,9.53
2019-05-07T08:33:02.217Z,9.43
2019-05-07T08:39:25.168Z,8.63
2019-05-07T08:42:33.526Z,9.97
2019-05-07T08:45:58.924Z,8.23
2019-05-07T08:49:08.247Z,7.63
2019-05-07T08:52:16.543Z,8.80
2019-05-07T08:55:24.520Z,8.20
2019-05-07T08:58:32.552Z,7.73
2019-05-07T09:08:54.526Z,9.63
2019-05-07T09:12:03.150Z,8.17
2019-05-07T09:15:12.649Z,8.23
2019-05-07T09:18:22.814Z,7.73
2019-05-07T09:21:32.223Z,7.60
2019-05-07T09:31:06.241Z,6.63
2019-05-07T09:34:14.522Z,6.30
2019-05-07T09:37:26.475Z,5.27
2019-05-07T09:40:34.635Z,5.13
2019-05-07T09:43:42.526Z,4.50
2019-05-07T09:46:52.055Z,5.30
2019-05-07T09:50:05.496Z,5.00
2019-05-07T09:53:12.544Z,4.80
2019-05-07T09:56:22.464Z,4.77
2019-05-07T09:59:32.356Z,4.33
2019-05-07T10:06:36.425Z,4.27
2019-05-07T10:13:18.827Z,3.70
2019-05-07T10:16:32.403Z,5.20
2019-05-07T10:19:41.741Z,4.50
2019-05-07T10:22:51.862Z,4.60
2019-05-07T10:26:01.666Z,4.53
2019-05-07T10:29:09.469Z,4.73
2019-05-07T10:32:17.659Z,4.87
2019-05-07T10:35:27.256Z,4.47
2019-05-07T10:38:35.588Z,4.40
2019-05-07T10:41:43.682Z,4.87
2019-05-07T10:45:13.040Z,5.10
2019-05-07T10:48:39.747Z,4.60
2019-05-07T10:51:47.642Z,4.43
2019-05-07T10:54:59.766Z,5.17
2019-05-07T10:58:05.548Z,4.67
2019-05-07T11:01:16.356Z,4.47
2019-05-07T11:04:39.052Z,4.67
2019-05-07T11:07:35.556Z,5.40
2019-05-07T11:10:43.601Z,5.10
2019-05-07T11:13:55.522Z,4.03
2019-05-07T11:21:34.297Z,4.60
2019-05-07T11:24:42.689Z,4.77
2019-05-07T11:27:52.411Z,5.20
2019-05-07T11:31:02.076Z,5.23
2019-05-07T11:34:11.923Z,5.13
2019-05-07T11:37:22.467Z,5.10
2019-05-07T11:40:34.467Z,4.50
2019-05-07T11:43:58.147Z,4.47
2019-05-07T11:47:22.375Z,4.30
2019-05-07T11:51:01.365Z,4.20
2019-05-07T11:54:12.833Z,5.30
2019-05-07T11:57:22.150Z,5.13
2019-05-07T12:00:38.064Z,5.93
2019-05-07T12:03:46.114Z,7.63
2019-05-07T12:06:54.614Z,7.17
2019-05-07T12:10:04.862Z,7.67
2019-05-07T12:13:12.917Z,7.27
2019-05-07T12:16:22.341Z,4.97
2019-05-07T12:19:30.508Z,4.37
2019-05-07T12:22:48.262Z,5.23
2019-05-07T12:25:56.855Z,5.03
2019-05-07T12:29:05.140Z,5.57
2019-05-07T12:32:48.007Z,4.90
2019-05-07T12:35:56.266Z,5.53
2019-05-07T12:39:07.684Z,5.60
2019-05-07T12:45:23.454Z,5.03
2019-05-07T12:51:56.746Z,5.63
2019-05-07T12:55:13.564Z,5.37
2019-05-07T12:58:21.872Z,5.27
2019-05-07T13:01:48.764Z,7.73
2019-05-07T13:04:58.093Z,8.40
2019-05-07T13:08:06.657Z,6.03
2019-05-07T13:11:15.052Z,5.53
2019-05-07T13:17:46.595Z,5.23
2019-05-07T13:20:54.845Z,5.27
2019-05-07T13:24:02.835Z,4.50
2019-05-07T13:27:11.261Z,5.13
2019-05-07T13:30:22.181Z,5.40
2019-05-07T13:33:31.651Z,4.97
2019-05-07T13:36:44.242Z,5.60
2019-05-07T13:40:17.226Z,5.90
2019-05-07T13:43:30.907Z,5.57
2019-05-07T13:46:42.122Z,5.33
2019-05-07T13:49:53.566Z,4.83
2019-05-07T13:53:01.765Z,4.73
2019-05-07T13:56:12.684Z,4.60
2019-05-07T13:59:22.270Z,5.57
2019-05-07T14:02:32.697Z,4.83
2019-05-07T14:05:42.534Z,4.63
2019-05-07T14:12:01.896Z,5.13
2019-05-07T14:15:09.539Z,5.40
2019-05-07T14:18:19.267Z,5.40
2019-05-07T14:21:27.239Z,5.20
2019-05-07T14:24:36.586Z,4.70
2019-05-07T14:27:44.608Z,5.13
2019-05-07T14:30:53.264Z,4.63
2019-05-07T14:34:12.484Z,4.37
2019-05-07T14:37:32.494Z,4.40
2019-05-07T14:40:42.697Z,4.40
2019-05-07T14:44:01.242Z,4.23
2019-05-07T14:47:10.401Z,3.87
2019-05-07T14:50:22.426Z,4.03
2019-05-07T14:53:30.237Z,3.90
2019-05-07T14:56:39.236Z,4.20
2019-05-07T14:59:48.430Z,3.67
2019-05-07T15:02:56.531Z,4.40
2019-05-07T15:06:04.540Z,3.87
2019-05-07T15:09:12.644Z,4.50
2019-05-07T15:12:20.538Z,4.47
2019-05-07T15:15:28.563Z,4.40
2019-05-07T15:18:52.952Z,4.80
2019-05-07T15:25:31.993Z,4.23
2019-05-07T15:28:41.908Z,4.03
2019-05-07T15:32:08.034Z,3.87
2019-05-07T15:35:16.263Z,4.10
2019-05-07T15:38:24.517Z,4.17
2019-05-07T15:41:32.681Z,4.23
2019-05-07T15:44:43.223Z,3.97
2019-05-07T15:47:53.249Z,4.70
2019-05-07T15:51:01.908Z,5.00
2019-05-07T15:54:12.647Z,5.20
2019-05-07T15:57:25.396Z,4.77
2019-05-07T16:03:45.701Z,4.97
2019-05-07T16:06:54.704Z,5.00
2019-05-07T16:10:04.538Z,4.67
2019-05-07T16:13:14.252Z,5.50
2019-05-07T16:16:23.610Z,6.13
2019-05-07T16:19:32.215Z,5.13
2019-05-07T16:25:52.807Z,5.23
2019-05-07T16:29:04.717Z,5.17
2019-05-07T16:32:13.562Z,13.47
2019-05-07T16:35:24.441Z,8.40
2019-05-07T16:38:34.531Z,5.40
2019-05-07T16:41:44.060Z,6.73
2019-05-07T16:44:52.395Z,5.33
2019-05-07T16:48:03.183Z,6.00
2019-05-07T16:51:12.798Z,5.50
2019-05-07T16:54:21.403Z,6.10
2019-05-07T16:57:38.378Z,5.60
2019-05-07T17:00:52.281Z,5.20
2019-05-07T17:04:03.671Z,4.80
2019-05-07T17:07:13.891Z,5.33
2019-05-07T17:10:26.428Z,4.70
2019-05-07T17:13:37.371Z,4.73
2019-05-07T17:16:51.628Z,4.43
2019-05-07T17:20:02.138Z,3.30
2019-05-07T17:23:11.942Z,4.40
2019-05-07T17:26:23.033Z,3.70
2019-05-07T17:29:32.065Z,3.43
2019-05-07T17:32:41.976Z,3.20
2019-05-07T17:35:51.746Z,3.60
2019-05-07T17:39:04.310Z,3.67
2019-05-07T17:42:17.439Z,3.23
2019-05-07T17:45:26.537Z,3.40
2019-05-07T17:48:36.443Z,3.07
2019-05-07T17:54:53.155Z,3.73
2019-05-07T17:58:01.992Z,3.37
2019-05-07T18:01:11.098Z,3.73
2019-05-07T18:04:19.646Z,4.20
2019-05-07T18:07:28.104Z,4.07
2019-05-07T18:10:38.591Z,3.63
2019-05-07T18:13:47.127Z,3.80
2019-05-07T18:17:14.265Z,3.33
2019-05-07T18:20:22.393Z,3.23
2019-05-07T18:26:42.182Z,3.70
2019-05-07T18:29:52.089Z,3.10
2019-05-07T18:33:18.916Z,3.50
2019-05-07T18:36:31.646Z,3.77
2019-05-07T18:39:42.639Z,5.03
2019-05-07T18:42:54.053Z,4.33
2019-05-07T18:46:02.854Z,3.77
2019-05-07T18:52:24.582Z,15.97
2019-05-07T18:55:33.090Z,9.23
2019-05-07T18:58:42.628Z,8.47
2019-05-07T19:01:54.498Z,20.13
2019-05-07T19:05:05.659Z,23.37
2019-05-07T19:08:14.251Z,18.97
2019-05-07T19:11:22.986Z,10.63
2019-05-07T19:14:33.631Z,9.27
2019-05-07T19:17:44.449Z,16.43
2019-05-07T19:24:02.310Z,19.23
2019-05-07T19:33:28.563Z,10.73
2019-05-07T19:36:36.769Z,16.00
2019-05-07T19:39:46.747Z,12.43
2019-05-07T19:42:56.247Z,18.33
2019-05-07T19:46:04.555Z,27.27
2019-05-07T19:49:13.258Z,24.70
2019-05-07T19:52:23.190Z,14.93
2019-05-07T19:55:52.188Z,14.57
2019-05-07T19:59:03.632Z,8.83
2019-05-07T20:02:16.421Z,6.87
2019-05-07T20:08:32.467Z,6.17
2019-05-07T20:11:48.935Z,5.23
2019-05-07T20:14:57.429Z,4.53
2019-05-07T20:21:17.370Z,4.07
2019-05-07T20:24:25.589Z,3.87
2019-05-07T20:27:33.528Z,3.97
2019-05-07T20:30:41.918Z,4.13
2019-05-07T20:33:52.846Z,4.87
2019-05-07T20:37:02.063Z,4.70
2019-05-07T20:40:12.184Z,4.53
2019-05-07T20:43:20.551Z,4.20
2019-05-07T20:46:29.262Z,4.60
2019-05-07T20:49:38.515Z,5.23
2019-05-07T20:52:46.564Z,4.40
2019-05-07T20:56:02.226Z,4.87
2019-05-07T21:02:22.534Z,4.83
2019-05-07T21:05:32.419Z,4.93
2019-05-07T21:08:42.648Z,5.87
2019-05-07T21:11:52.380Z,6.50
2019-05-07T21:15:00.577Z,15.33
2019-05-07T21:18:09.276Z,13.03
2019-05-07T21:21:17.527Z,12.70
2019-05-07T21:24:25.591Z,10.60
2019-05-07T21:27:33.765Z,10.57
2019-05-07T21:30:42.796Z,7.23
2019-05-07T21:33:52.351Z,6.93
2019-05-07T21:37:00.572Z,14.50
2019-05-07T21:40:08.765Z,13.30
2019-05-07T21:43:17.017Z,7.43
2019-05-07T21:46:25.261Z,5.67
2019-05-07T21:49:33.546Z,6.70
2019-05-07T21:52:44.250Z,16.43
2019-05-07T21:56:12.346Z,11.87
2019-05-07T21:59:22.918Z,8.10
2019-05-07T22:02:32.757Z,11.03
2019-05-07T22:05:44.044Z,9.47
2019-05-07T22:08:52.523Z,7.17
2019-05-07T22:12:03.541Z,5.93
2019-05-07T22:15:13.255Z,6.07
2019-05-07T22:18:22.650Z,6.93
2019-05-07T22:21:33.978Z,7.17
2019-05-07T22:24:42.542Z,7.40
2019-05-07T22:27:52.855Z,8.63
2019-05-07T22:31:27.368Z,6.30
2019-05-07T22:34:52.050Z,5.07
2019-05-07T22:38:03.760Z,5.30
2019-05-07T22:41:12.928Z,5.10
2019-05-07T22:44:25.461Z,4.70
2019-05-07T22:50:39.663Z,4.47
2019-05-07T22:53:47.666Z,5.10
2019-05-07T22:57:14.303Z,5.03
2019-05-07T23:00:32.133Z,4.93
2019-05-07T23:03:42.860Z,4.40
2019-05-07T23:06:52.668Z,4.90
2019-05-07T23:10:02.377Z,4.90
2019-05-07T23:13:10.007Z,4.53
2019-05-07T23:16:17.920Z,4.83
2019-05-07T23:19:26.094Z,4.40
2019-05-07T23:22:34.282Z,4.80
2019-05-07T23:25:43.191Z,3.93
2019-05-07T23:28:52.511Z,3.87
2019-05-07T23:32:01.924Z,4.20
2019-05-07T23:35:12.560Z,3.90
2019-05-07T23:38:22.387Z,4.67
2019-05-07T23:41:36.517Z,4.03
2019-05-07T23:44:44.482Z,3.77
2019-05-07T23:51:02.058Z,4.63
2019-05-07T23:54:11.951Z,4.00
